sensor_id;sensor_type;location;lat;lon;timestamp;temperature;humidity
51486;DHT22;37565;51.352;6.412;2023-03-20T08:49:44;19.50;92.40
51486;DHT22;37565;51.352;6.412;2023-03-20T08:52:12;18.90;92.60
51486;DHT22;37565;51.352;6.412;2023-03-20T08:54:40;18.90;92.70
51486;DHT22;37565;51.352;6.412;2023-03-20T08:57:08;18.90;92.80
51486;DHT22;37565;51.352;6.412;2023-03-20T08:59:36;19.00;92.80
51486;DHT22;37565;51.352;6.412;2023-03-20T09:02:05;19.00;92.70
51486;DHT22;37565;51.352;6.412;2023-03-20T09:04:33;19.10;92.80
51486;DHT22;37565;51.352;6.412;2023-03-20T09:07:02;19.10;92.70
51486;DHT22;37565;51.352;6.412;2023-03-20T09:09:30;19.10;92.80
51486;DHT22;37565;51.352;6.412;2023-03-20T09:11:59;19.10;92.80
51486;DHT22;37565;51.352;6.412;2023-03-20T09:14:27;19.10;92.90
51486;DHT22;37565;51.352;6.412;2023-03-20T09:16:55;19.10;92.90
51486;DHT22;37565;51.352;6.412;2023-03-20T09:19:23;19.10;93.00
51486;DHT22;37565;51.352;6.412;2023-03-20T09:21:51;19.10;93.00
51486;DHT22;37565;51.352;6.412;2023-03-20T09:24:20;19.10;92.90
51486;DHT22;37565;51.352;6.412;2023-03-20T09:26:48;19.10;92.90
51486;DHT22;37565;51.352;6.412;2023-03-20T09:29:17;19.10;93.00
51486;DHT22;37565;51.352;6.412;2023-03-20T09:31:45;19.10;93.10
51486;DHT22;37565;51.352;6.412;2023-03-20T09:34:12;19.10;93.10
51486;DHT22;37565;51.352;6.412;2023-03-20T09:36:41;19.00;93.10
51486;DHT22;37565;51.352;6.412;2023-03-20T09:39:09;19.00;93.00
51486;DHT22;37565;51.352;6.412;2023-03-20T09:41:38;19.00;93.10
51486;DHT22;37565;51.352;6.412;2023-03-20T09:44:35;19.00;93.20
51486;DHT22;37565;51.352;6.412;2023-03-20T09:47:11;19.00;93.10
51486;DHT22;37565;51.352;6.412;2023-03-20T09:49:54;19.00;93.10
51486;DHT22;37565;51.352;6.412;2023-03-20T09:52:27;19.00;93.00
51486;DHT22;37565;51.352;6.412;2023-03-20T09:54:58;19.00;92.90
51486;DHT22;37565;51.352;6.412;2023-03-20T09:57:34;19.00;92.90
51486;DHT22;37565;51.352;6.412;2023-03-20T10:00:09;19.00;93.00
51486;DHT22;37565;51.352;6.412;2023-03-20T10:02:48;19.00;92.90
51486;DHT22;37565;51.352;6.412;2023-03-20T10:05:20;19.00;93.00
51486;DHT22;37565;51.352;6.412;2023-03-20T10:07:51;19.00;92.70
51486;DHT22;37565;51.352;6.412;2023-03-20T10:10:24;19.00;92.70
51486;DHT22;37565;51.352;6.412;2023-03-20T10:13:05;19.10;92.60
51486;DHT22;37565;51.352;6.412;2023-03-20T10:15:44;19.20;92.40
51486;DHT22;37565;51.352;6.412;2023-03-20T10:18:19;19.30;92.40
51486;DHT22;37565;51.352;6.412;2023-03-20T10:20:53;19.40;92.40
51486;DHT22;37565;51.352;6.412;2023-03-20T10:23:27;19.40;92.40
51486;DHT22;37565;51.352;6.412;2023-03-20T10:26:01;19.40;92.40
51486;DHT22;37565;51.352;6.412;2023-03-20T10:28:35;19.40;92.40
51486;DHT22;37565;51.352;6.412;2023-03-20T10:31:18;19.40;92.50
51486;DHT22;37565;51.352;6.412;2023-03-20T10:33:56;19.40;92.50
51486;DHT22;37565;51.352;6.412;2023-03-20T10:36:41;19.40;92.60
51486;DHT22;37565;51.352;6.412;2023-03-20T10:39:30;19.40;92.50
51486;DHT22;37565;51.352;6.412;2023-03-20T10:42:03;19.40;92.60
51486;DHT22;37565;51.352;6.412;2023-03-20T10:44:39;19.40;92.70
51486;DHT22;37565;51.352;6.412;2023-03-20T10:47:10;19.40;92.70
51486;DHT22;37565;51.352;6.412;2023-03-20T10:49:42;19.40;92.70
51486;DHT22;37565;51.352;6.412;2023-03-20T10:52:13;19.40;92.70
51486;DHT22;37565;51.352;6.412;2023-03-20T10:54:46;19.40;92.70
51486;DHT22;37565;51.352;6.412;2023-03-20T10:57:20;19.40;93.00
51486;DHT22;37565;51.352;6.412;2023-03-20T10:59:52;19.40;92.70
51486;DHT22;37565;51.352;6.412;2023-03-20T11:02:24;19.40;92.80
51486;DHT22;37565;51.352;6.412;2023-03-20T11:04:52;19.40;92.90
51486;DHT22;37565;51.352;6.412;2023-03-20T11:07:24;19.40;92.90
51486;DHT22;37565;51.352;6.412;2023-03-20T11:10:11;19.40;93.00
51486;DHT22;37565;51.352;6.412;2023-03-20T11:12:41;19.40;93.10
51486;DHT22;37565;51.352;6.412;2023-03-20T11:15:23;19.30;93.10
51486;DHT22;37565;51.352;6.412;2023-03-20T11:17:53;19.40;93.10
51486;DHT22;37565;51.352;6.412;2023-03-20T11:20:22;19.30;93.50
51486;DHT22;37565;51.352;6.412;2023-03-20T11:22:56;19.30;93.20
51486;DHT22;37565;51.352;6.412;2023-03-20T11:25:27;19.40;93.20
51486;DHT22;37565;51.352;6.412;2023-03-20T11:27:57;19.40;93.20
51486;DHT22;37565;51.352;6.412;2023-03-20T11:30:47;19.30;93.10
51486;DHT22;37565;51.352;6.412;2023-03-20T11:33:30;19.40;93.10
51486;DHT22;37565;51.352;6.412;2023-03-20T11:35:58;19.30;93.10
51486;DHT22;37565;51.352;6.412;2023-03-20T11:38:29;19.40;93.00
51486;DHT22;37565;51.352;6.412;2023-03-20T11:40:57;19.40;93.10
51486;DHT22;37565;51.352;6.412;2023-03-20T11:43:26;19.40;93.00
51486;DHT22;37565;51.352;6.412;2023-03-20T11:45:57;19.30;93.00
51486;DHT22;37565;51.352;6.412;2023-03-20T11:48:35;19.30;92.90
51486;DHT22;37565;51.352;6.412;2023-03-20T11:51:06;19.30;93.10
51486;DHT22;37565;51.352;6.412;2023-03-20T11:53:37;19.30;93.10
51486;DHT22;37565;51.352;6.412;2023-03-20T11:56:09;19.30;93.10
51486;DHT22;37565;51.352;6.412;2023-03-20T11:58:45;19.40;93.20
51486;DHT22;37565;51.352;6.412;2023-03-20T12:01:16;19.30;93.10
51486;DHT22;37565;51.352;6.412;2023-03-20T12:03:49;19.40;93.20
51486;DHT22;37565;51.352;6.412;2023-03-20T12:06:23;19.40;93.20
51486;DHT22;37565;51.352;6.412;2023-03-20T12:08:55;19.40;93.20
51486;DHT22;37565;51.352;6.412;2023-03-20T12:11:37;19.40;93.30
51486;DHT22;37565;51.352;6.412;2023-03-20T12:14:16;19.30;93.20
51486;DHT22;37565;51.352;6.412;2023-03-20T12:16:51;19.40;93.30
51486;DHT22;37565;51.352;6.412;2023-03-20T12:19:25;19.40;93.40
51486;DHT22;37565;51.352;6.412;2023-03-20T12:22:00;19.40;93.30
51486;DHT22;37565;51.352;6.412;2023-03-20T12:24:36;19.40;93.40
51486;DHT22;37565;51.352;6.412;2023-03-20T12:27:21;19.40;93.40
51486;DHT22;37565;51.352;6.412;2023-03-20T12:29:53;19.40;93.50
51486;DHT22;37565;51.352;6.412;2023-03-20T12:32:29;19.40;93.40
51486;DHT22;37565;51.352;6.412;2023-03-20T12:35:04;19.50;93.50
51486;DHT22;37565;51.352;6.412;2023-03-20T12:37:36;19.50;93.50
51486;DHT22;37565;51.352;6.412;2023-03-20T12:40:10;19.50;93.50
51486;DHT22;37565;51.352;6.412;2023-03-20T12:42:49;19.40;93.50
51486;DHT22;37565;51.352;6.412;2023-03-20T12:45:20;19.50;93.60
51486;DHT22;37565;51.352;6.412;2023-03-20T12:48:10;19.50;93.60
51486;DHT22;37565;51.352;6.412;2023-03-20T12:50:45;19.50;93.80
51486;DHT22;37565;51.352;6.412;2023-03-20T12:53:30;19.50;93.60
51486;DHT22;37565;51.352;6.412;2023-03-20T12:56:12;19.50;93.50
51486;DHT22;37565;51.352;6.412;2023-03-20T12:58:46;19.50;93.60
51486;DHT22;37565;51.352;6.412;2023-03-20T13:01:18;19.50;93.50
51486;DHT22;37565;51.352;6.412;2023-03-20T13:04:11;19.50;93.50
51486;DHT22;37565;51.352;6.412;2023-03-20T13:06:50;19.60;93.50
51486;DHT22;37565;51.352;6.412;2023-03-20T13:09:35;19.60;93.50
51486;DHT22;37565;51.352;6.412;2023-03-20T13:12:12;19.60;93.50
51486;DHT22;37565;51.352;6.412;2023-03-20T13:14:47;19.60;93.60
51486;DHT22;37565;51.352;6.412;2023-03-20T13:17:19;19.60;93.70
51486;DHT22;37565;51.352;6.412;2023-03-20T13:20:15;19.50;93.60
51486;DHT22;37565;51.352;6.412;2023-03-20T13:22:53;19.50;93.80
51486;DHT22;37565;51.352;6.412;2023-03-20T13:25:36;19.40;93.80
51486;DHT22;37565;51.352;6.412;2023-03-20T13:28:14;19.40;93.90
51486;DHT22;37565;51.352;6.412;2023-03-20T13:30:51;19.40;93.90
51486;DHT22;37565;51.352;6.412;2023-03-20T13:33:31;19.50;93.80
51486;DHT22;37565;51.352;6.412;2023-03-20T13:36:08;19.50;93.40
51486;DHT22;37565;51.352;6.412;2023-03-20T13:38:44;19.40;92.90
51486;DHT22;37565;51.352;6.412;2023-03-20T13:41:14;19.40;92.70
51486;DHT22;37565;51.352;6.412;2023-03-20T13:43:46;19.50;92.40
51486;DHT22;37565;51.352;6.412;2023-03-20T13:46:19;19.50;92.20
51486;DHT22;37565;51.352;6.412;2023-03-20T13:48:50;19.50;92.70
51486;DHT22;37565;51.352;6.412;2023-03-20T13:51:26;19.50;93.00
51486;DHT22;37565;51.352;6.412;2023-03-20T13:54:06;19.50;93.30
51486;DHT22;37565;51.352;6.412;2023-03-20T13:56:46;19.50;93.70
51486;DHT22;37565;51.352;6.412;2023-03-20T13:59:35;19.60;93.80
51486;DHT22;37565;51.352;6.412;2023-03-20T14:02:22;19.70;94.00
51486;DHT22;37565;51.352;6.412;2023-03-20T14:05:00;19.70;93.80
51486;DHT22;37565;51.352;6.412;2023-03-20T14:07:32;19.70;94.20
51486;DHT22;37565;51.352;6.412;2023-03-20T14:13:12;19.70;93.90
51486;DHT22;37565;51.352;6.412;2023-03-20T14:15:48;19.70;93.80
51486;DHT22;37565;51.352;6.412;2023-03-20T14:18:17;19.70;93.60
51486;DHT22;37565;51.352;6.412;2023-03-20T14:20:52;19.70;93.40
51486;DHT22;37565;51.352;6.412;2023-03-20T14:23:32;19.70;93.40
51486;DHT22;37565;51.352;6.412;2023-03-20T14:26:05;19.70;93.40
51486;DHT22;37565;51.352;6.412;2023-03-20T14:28:45;19.70;93.30
51486;DHT22;37565;51.352;6.412;2023-03-20T14:31:23;19.70;93.40
51486;DHT22;37565;51.352;6.412;2023-03-20T14:34:13;19.60;93.30
51486;DHT22;37565;51.352;6.412;2023-03-20T14:36:50;19.70;93.50
51486;DHT22;37565;51.352;6.412;2023-03-20T14:39:28;19.70;93.70
51486;DHT22;37565;51.352;6.412;2023-03-20T14:42:10;19.70;93.40
51486;DHT22;37565;51.352;6.412;2023-03-20T14:44:54;19.70;93.40
51486;DHT22;37565;51.352;6.412;2023-03-20T14:47:37;19.70;93.30
51486;DHT22;37565;51.352;6.412;2023-03-20T14:50:16;19.70;93.40
51486;DHT22;37565;51.352;6.412;2023-03-20T14:52:58;19.60;93.40
51486;DHT22;37565;51.352;6.412;2023-03-20T14:55:31;19.60;93.50
51486;DHT22;37565;51.352;6.412;2023-03-20T14:58:04;19.60;93.70
51486;DHT22;37565;51.352;6.412;2023-03-20T15:00:35;19.70;93.70
51486;DHT22;37565;51.352;6.412;2023-03-20T15:03:14;19.70;93.90
51486;DHT22;37565;51.352;6.412;2023-03-20T15:05:43;19.60;93.80
51486;DHT22;37565;51.352;6.412;2023-03-20T15:08:16;19.60;93.90
51486;DHT22;37565;51.352;6.412;2023-03-20T15:10:52;19.70;93.60
51486;DHT22;37565;51.352;6.412;2023-03-20T15:13:21;19.70;93.90
51486;DHT22;37565;51.352;6.412;2023-03-20T15:15:52;19.70;94.00
51486;DHT22;37565;51.352;6.412;2023-03-20T15:18:23;19.60;94.40
51486;DHT22;37565;51.352;6.412;2023-03-20T15:20:51;19.70;94.60
51486;DHT22;37565;51.352;6.412;2023-03-20T15:23:20;19.70;94.50
51486;DHT22;37565;51.352;6.412;2023-03-20T15:25:50;19.70;94.50
51486;DHT22;37565;51.352;6.412;2023-03-20T15:28:21;19.70;94.60
51486;DHT22;37565;51.352;6.412;2023-03-20T15:30:50;19.70;94.70
51486;DHT22;37565;51.352;6.412;2023-03-20T15:33:25;19.70;94.70
51486;DHT22;37565;51.352;6.412;2023-03-20T15:35:53;19.60;94.80
51486;DHT22;37565;51.352;6.412;2023-03-20T15:38:26;19.60;94.80
51486;DHT22;37565;51.352;6.412;2023-03-20T15:40:56;19.60;94.90
51486;DHT22;37565;51.352;6.412;2023-03-20T15:43:25;19.60;94.80
51486;DHT22;37565;51.352;6.412;2023-03-20T15:45:55;19.60;95.00
51486;DHT22;37565;51.352;6.412;2023-03-20T15:48:46;19.60;94.90
51486;DHT22;37565;51.352;6.412;2023-03-20T15:51:14;19.60;94.80
51486;DHT22;37565;51.352;6.412;2023-03-20T15:53:45;19.60;94.90
51486;DHT22;37565;51.352;6.412;2023-03-20T15:56:17;19.60;94.70
51486;DHT22;37565;51.352;6.412;2023-03-20T15:58:48;19.60;94.70
51486;DHT22;37565;51.352;6.412;2023-03-20T16:01:19;19.60;94.60
51486;DHT22;37565;51.352;6.412;2023-03-20T16:03:48;19.70;94.60
51486;DHT22;37565;51.352;6.412;2023-03-20T16:06:19;19.70;94.50
51486;DHT22;37565;51.352;6.412;2023-03-20T16:08:55;19.70;94.40
51486;DHT22;37565;51.352;6.412;2023-03-20T16:11:34;19.70;94.30
51486;DHT22;37565;51.352;6.412;2023-03-20T16:14:03;19.70;94.30
51486;DHT22;37565;51.352;6.412;2023-03-20T16:16:32;19.70;94.10
51486;DHT22;37565;51.352;6.412;2023-03-20T16:19:04;19.70;94.30
51486;DHT22;37565;51.352;6.412;2023-03-20T16:21:34;19.70;94.30
51486;DHT22;37565;51.352;6.412;2023-03-20T16:24:07;19.70;94.40
51486;DHT22;37565;51.352;6.412;2023-03-20T16:26:42;19.70;94.30
51486;DHT22;37565;51.352;6.412;2023-03-20T16:29:12;19.70;94.30
51486;DHT22;37565;51.352;6.412;2023-03-20T16:31:46;19.70;94.40
51486;DHT22;37565;51.352;6.412;2023-03-20T16:34:17;19.70;94.40
51486;DHT22;37565;51.352;6.412;2023-03-20T16:36:51;19.70;94.40
51486;DHT22;37565;51.352;6.412;2023-03-20T16:39:21;19.70;94.40
51486;DHT22;37565;51.352;6.412;2023-03-20T16:42:09;19.70;94.60
51486;DHT22;37565;51.352;6.412;2023-03-20T16:44:40;19.70;94.60
51486;DHT22;37565;51.352;6.412;2023-03-20T16:47:16;19.70;94.70
51486;DHT22;37565;51.352;6.412;2023-03-20T16:52:48;19.70;94.70
51486;DHT22;37565;51.352;6.412;2023-03-20T16:55:21;19.70;94.70
51486;DHT22;37565;51.352;6.412;2023-03-20T16:57:55;19.70;94.60
51486;DHT22;37565;51.352;6.412;2023-03-20T17:00:29;19.60;94.50
51486;DHT22;37565;51.352;6.412;2023-03-20T17:03:05;19.60;94.40
51486;DHT22;37565;51.352;6.412;2023-03-20T17:05:46;19.70;94.70
51486;DHT22;37565;51.352;6.412;2023-03-20T17:08:16;19.70;94.80
51486;DHT22;37565;51.352;6.412;2023-03-20T17:10:52;19.70;94.80
51486;DHT22;37565;51.352;6.412;2023-03-20T17:13:22;19.70;94.80
51486;DHT22;37565;51.352;6.412;2023-03-20T17:15:50;19.70;95.00
51486;DHT22;37565;51.352;6.412;2023-03-20T17:18:18;19.70;95.00
51486;DHT22;37565;51.352;6.412;2023-03-20T17:20:46;19.70;95.40
51486;DHT22;37565;51.352;6.412;2023-03-20T17:23:18;19.70;95.50
51486;DHT22;37565;51.352;6.412;2023-03-20T17:25:46;19.70;95.60
51486;DHT22;37565;51.352;6.412;2023-03-20T17:28:18;19.70;95.80
51486;DHT22;37565;51.352;6.412;2023-03-20T17:30:49;19.70;96.00
51486;DHT22;37565;51.352;6.412;2023-03-20T17:33:18;19.70;96.10
51486;DHT22;37565;51.352;6.412;2023-03-20T17:35:47;19.80;95.90
51486;DHT22;37565;51.352;6.412;2023-03-20T17:38:18;19.80;96.10
51486;DHT22;37565;51.352;6.412;2023-03-20T17:40:47;19.70;94.10
51486;DHT22;37565;51.352;6.412;2023-03-20T17:43:17;19.60;93.90
51486;DHT22;37565;51.352;6.412;2023-03-20T17:45:45;19.60;93.90
51486;DHT22;37565;51.352;6.412;2023-03-20T17:48:17;19.60;94.00
51486;DHT22;37565;51.352;6.412;2023-03-20T17:50:47;19.70;94.00
51486;DHT22;37565;51.352;6.412;2023-03-20T17:53:17;19.70;94.10
51486;DHT22;37565;51.352;6.412;2023-03-20T17:55:46;19.70;94.30
51486;DHT22;37565;51.352;6.412;2023-03-20T17:58:16;19.70;94.30
51486;DHT22;37565;51.352;6.412;2023-03-20T18:00:44;19.70;94.40
51486;DHT22;37565;51.352;6.412;2023-03-20T18:03:12;19.70;94.80
51486;DHT22;37565;51.352;6.412;2023-03-20T18:05:42;19.70;94.30
51486;DHT22;37565;51.352;6.412;2023-03-20T18:08:14;19.70;94.40
51486;DHT22;37565;51.352;6.412;2023-03-20T18:10:43;19.70;94.40
51486;DHT22;37565;51.352;6.412;2023-03-20T18:13:11;19.60;94.30
51486;DHT22;37565;51.352;6.412;2023-03-20T18:15:39;19.60;94.20
51486;DHT22;37565;51.352;6.412;2023-03-20T18:18:07;19.60;94.20
51486;DHT22;37565;51.352;6.412;2023-03-20T18:20:37;19.60;94.30
51486;DHT22;37565;51.352;6.412;2023-03-20T18:23:08;19.60;94.20
51486;DHT22;37565;51.352;6.412;2023-03-20T18:25:36;19.60;94.30
51486;DHT22;37565;51.352;6.412;2023-03-20T18:28:06;19.60;94.10
51486;DHT22;37565;51.352;6.412;2023-03-20T18:30:36;19.60;94.10
51486;DHT22;37565;51.352;6.412;2023-03-20T18:33:05;19.60;94.00
51486;DHT22;37565;51.352;6.412;2023-03-20T18:35:34;19.60;94.00
51486;DHT22;37565;51.352;6.412;2023-03-20T18:38:02;19.60;94.00
51486;DHT22;37565;51.352;6.412;2023-03-20T18:40:33;19.50;94.20
51486;DHT22;37565;51.352;6.412;2023-03-20T18:43:02;19.60;94.10
51486;DHT22;37565;51.352;6.412;2023-03-20T18:45:31;19.50;94.00
51486;DHT22;37565;51.352;6.412;2023-03-20T18:47:59;19.60;94.00
51486;DHT22;37565;51.352;6.412;2023-03-20T18:50:31;19.50;94.00
51486;DHT22;37565;51.352;6.412;2023-03-20T18:53:04;19.60;94.10
51486;DHT22;37565;51.352;6.412;2023-03-20T18:55:34;19.60;94.20
51486;DHT22;37565;51.352;6.412;2023-03-20T18:58:03;19.60;94.30
51486;DHT22;37565;51.352;6.412;2023-03-20T19:00:34;19.60;94.30
51486;DHT22;37565;51.352;6.412;2023-03-20T19:03:06;19.60;94.60
51486;DHT22;37565;51.352;6.412;2023-03-20T19:05:34;19.60;94.70
51486;DHT22;37565;51.352;6.412;2023-03-20T19:08:03;19.60;95.00
51486;DHT22;37565;51.352;6.412;2023-03-20T19:10:34;19.50;95.10
51486;DHT22;37565;51.352;6.412;2023-03-20T19:13:04;19.50;95.40
51486;DHT22;37565;51.352;6.412;2023-03-20T19:15:35;19.50;95.60
51486;DHT22;37565;51.352;6.412;2023-03-20T19:18:05;19.50;95.60
51486;DHT22;37565;51.352;6.412;2023-03-20T19:20:35;19.50;95.60
51486;DHT22;37565;51.352;6.412;2023-03-20T19:23:05;19.50;95.70
51486;DHT22;37565;51.352;6.412;2023-03-20T19:25:36;19.50;95.80
51486;DHT22;37565;51.352;6.412;2023-03-20T19:28:04;19.50;95.80
51486;DHT22;37565;51.352;6.412;2023-03-20T19:30:34;19.50;95.80
51486;DHT22;37565;51.352;6.412;2023-03-20T19:33:04;19.50;96.00
51486;DHT22;37565;51.352;6.412;2023-03-20T19:35:33;19.50;96.00
51486;DHT22;37565;51.352;6.412;2023-03-20T19:38:21;19.50;96.00
51486;DHT22;37565;51.352;6.412;2023-03-20T19:40:51;19.50;96.00
51486;DHT22;37565;51.352;6.412;2023-03-20T19:43:20;19.50;95.90
51486;DHT22;37565;51.352;6.412;2023-03-20T19:45:50;19.50;95.90
51486;DHT22;37565;51.352;6.412;2023-03-20T19:48:26;19.50;95.90
51486;DHT22;37565;51.352;6.412;2023-03-20T19:51:16;19.50;96.00
51486;DHT22;37565;51.352;6.412;2023-03-20T19:53:45;19.50;95.80
51486;DHT22;37565;51.352;6.412;2023-03-20T19:56:16;19.50;95.70
51486;DHT22;37565;51.352;6.412;2023-03-20T19:58:44;19.60;95.60
51486;DHT22;37565;51.352;6.412;2023-03-20T20:01:14;19.60;95.40
51486;DHT22;37565;51.352;6.412;2023-03-20T20:03:43;19.70;95.30
51486;DHT22;37565;51.352;6.412;2023-03-20T20:06:12;19.70;95.30
51486;DHT22;37565;51.352;6.412;2023-03-20T20:08:41;19.70;95.10
51486;DHT22;37565;51.352;6.412;2023-03-20T20:11:15;19.70;95.00
51486;DHT22;37565;51.352;6.412;2023-03-20T20:13:43;19.70;94.90
51486;DHT22;37565;51.352;6.412;2023-03-20T20:16:32;19.70;94.80
51486;DHT22;37565;51.352;6.412;2023-03-20T20:19:00;19.70;94.80
51486;DHT22;37565;51.352;6.412;2023-03-20T20:21:29;19.70;94.90
51486;DHT22;37565;51.352;6.412;2023-03-20T20:24:17;19.70;94.90
51486;DHT22;37565;51.352;6.412;2023-03-20T20:26:48;19.70;95.10
51486;DHT22;37565;51.352;6.412;2023-03-20T20:29:29;19.70;95.00
51486;DHT22;37565;51.352;6.412;2023-03-20T20:31:58;19.70;95.00
51486;DHT22;37565;51.352;6.412;2023-03-20T20:34:26;19.70;95.10
51486;DHT22;37565;51.352;6.412;2023-03-20T20:37:15;19.70;95.10
51486;DHT22;37565;51.352;6.412;2023-03-20T20:40:04;19.70;95.00
51486;DHT22;37565;51.352;6.412;2023-03-20T20:42:33;19.70;95.00
51486;DHT22;37565;51.352;6.412;2023-03-20T20:45:04;19.70;95.20
51486;DHT22;37565;51.352;6.412;2023-03-20T20:47:32;19.60;95.20
51486;DHT22;37565;51.352;6.412;2023-03-20T20:50:00;19.60;95.30
51486;DHT22;37565;51.352;6.412;2023-03-20T20:52:29;19.60;95.30
51486;DHT22;37565;51.352;6.412;2023-03-20T20:54:57;19.60;95.40
51486;DHT22;37565;51.352;6.412;2023-03-20T20:57:48;19.60;95.50
51486;DHT22;37565;51.352;6.412;2023-03-20T21:00:17;19.60;95.40
51486;DHT22;37565;51.352;6.412;2023-03-20T21:02:45;19.70;95.40
51486;DHT22;37565;51.352;6.412;2023-03-20T21:05:15;19.70;95.30
51486;DHT22;37565;51.352;6.412;2023-03-20T21:07:45;19.70;95.40
51486;DHT22;37565;51.352;6.412;2023-03-20T21:10:15;19.60;95.50
51486;DHT22;37565;51.352;6.412;2023-03-20T21:12:44;19.70;95.50
51486;DHT22;37565;51.352;6.412;2023-03-20T21:15:26;19.60;95.60
51486;DHT22;37565;51.352;6.412;2023-03-20T21:17:54;19.70;95.60
51486;DHT22;37565;51.352;6.412;2023-03-20T21:20:27;19.70;95.60
51486;DHT22;37565;51.352;6.412;2023-03-20T21:22:55;19.70;95.90
51486;DHT22;37565;51.352;6.412;2023-03-20T21:25:24;19.60;95.70
51486;DHT22;37565;51.352;6.412;2023-03-20T21:28:06;19.60;95.70
51486;DHT22;37565;51.352;6.412;2023-03-20T21:30:36;19.60;95.80
51486;DHT22;37565;51.352;6.412;2023-03-20T21:33:16;19.60;95.60
51486;DHT22;37565;51.352;6.412;2023-03-20T21:35:44;19.60;95.70
51486;DHT22;37565;51.352;6.412;2023-03-20T21:38:13;19.60;95.60
51486;DHT22;37565;51.352;6.412;2023-03-20T21:41:06;19.60;95.60
51486;DHT22;37565;51.352;6.412;2023-03-20T21:43:34;19.60;95.50
51486;DHT22;37565;51.352;6.412;2023-03-20T21:46:04;19.70;94.70
51486;DHT22;37565;51.352;6.412;2023-03-20T21:48:51;19.70;94.60
51486;DHT22;37565;51.352;6.412;2023-03-20T21:51:39;19.70;94.60
51486;DHT22;37565;51.352;6.412;2023-03-20T21:54:28;19.70;94.60
51486;DHT22;37565;51.352;6.412;2023-03-20T21:57:16;19.70;94.30
51486;DHT22;37565;51.352;6.412;2023-03-20T22:00:05;19.70;94.70
51486;DHT22;37565;51.352;6.412;2023-03-20T22:02:56;19.60;94.90
51486;DHT22;37565;51.352;6.412;2023-03-20T22:05:37;19.60;95.10
51486;DHT22;37565;51.352;6.412;2023-03-20T22:08:25;19.50;95.10
51486;DHT22;37565;51.352;6.412;2023-03-20T22:11:12;19.60;95.10
51486;DHT22;37565;51.352;6.412;2023-03-20T22:14:01;19.60;95.10
51486;DHT22;37565;51.352;6.412;2023-03-20T22:16:49;19.60;94.90
51486;DHT22;37565;51.352;6.412;2023-03-20T22:19:38;19.60;95.00
51486;DHT22;37565;51.352;6.412;2023-03-20T22:22:26;19.60;94.80
51486;DHT22;37565;51.352;6.412;2023-03-20T22:25:15;19.70;95.00
51486;DHT22;37565;51.352;6.412;2023-03-20T22:28:03;19.60;95.00
51486;DHT22;37565;51.352;6.412;2023-03-20T22:30:51;19.60;94.90
51486;DHT22;37565;51.352;6.412;2023-03-20T22:33:39;19.60;94.90
51486;DHT22;37565;51.352;6.412;2023-03-20T22:36:28;19.60;94.90
51486;DHT22;37565;51.352;6.412;2023-03-20T22:39:16;19.60;94.80
51486;DHT22;37565;51.352;6.412;2023-03-20T22:42:04;19.60;95.10
51486;DHT22;37565;51.352;6.412;2023-03-20T22:44:52;19.50;94.60
51486;DHT22;37565;51.352;6.412;2023-03-20T22:47:29;19.50;95.10
51486;DHT22;37565;51.352;6.412;2023-03-20T22:49:57;19.60;94.80
51486;DHT22;37565;51.352;6.412;2023-03-20T22:52:26;19.60;94.60
51486;DHT22;37565;51.352;6.412;2023-03-20T22:55:14;19.60;94.80
51486;DHT22;37565;51.352;6.412;2023-03-20T22:57:43;19.70;94.80
51486;DHT22;37565;51.352;6.412;2023-03-20T23:00:31;19.70;94.80
51486;DHT22;37565;51.352;6.412;2023-03-20T23:02:58;19.70;94.70
51486;DHT22;37565;51.352;6.412;2023-03-20T23:05:45;19.70;94.70
51486;DHT22;37565;51.352;6.412;2023-03-20T23:08:14;19.70;94.70
51486;DHT22;37565;51.352;6.412;2023-03-20T23:10:43;19.70;94.60
51486;DHT22;37565;51.352;6.412;2023-03-20T23:13:12;19.70;94.60
51486;DHT22;37565;51.352;6.412;2023-03-20T23:15:40;19.70;94.60
51486;DHT22;37565;51.352;6.412;2023-03-20T23:18:09;19.60;94.40
51486;DHT22;37565;51.352;6.412;2023-03-20T23:20:38;19.60;94.80
51486;DHT22;37565;51.352;6.412;2023-03-20T23:23:06;19.60;94.70
51486;DHT22;37565;51.352;6.412;2023-03-20T23:25:35;19.60;94.60
